Die Wetterstation in Yach-Sommerrain 515m üNN
Wetterdaten: aktuell Montag, 31.08.2026 21:35
Datum Zeit Temp. A. Feuchte A. Luftdruck Regen Wind Richtung Richtung Solar Taupunkt Windchill Windböen Empfang
31.08.2026 21:35 16,1 °C 86 % 1023,6 hPa 0,0 l/m² 1,0 km/h (0 Bft) N-NW 332 ° 0 W/m² 13,8 °C 16,1 °C 4,8 km/h (1 Bft) 100 %
31.08.2026 21:30 16,2 °C 85 % 1023,5 hPa 0,0 l/m² 2,9 km/h (1 Bft) N-NW 332 ° 0 W/m² 13,7 °C 16,2 °C 8,0 km/h (2 Bft) 100 %
31.08.2026 21:25 16,2 °C 86 % 1023,5 hPa 0,2 l/m² 3,6 km/h (1 Bft) N 350 ° 0 W/m² 13,9 °C 16,2 °C 6,4 km/h (2 Bft) 100 %
31.08.2026 21:20 16,3 °C 85 % 1023,5 hPa 0,0 l/m² 2,0 km/h (1 Bft) N-NO 21 ° 0 W/m² 13,8 °C 16,3 °C 4,8 km/h (1 Bft) 100 %
31.08.2026 21:15 16,4 °C 84 % 1023,4 hPa 0,2 l/m² 2,2 km/h (1 Bft) O 89 ° 0 W/m² 13,7 °C 16,4 °C 4,8 km/h (1 Bft) 100 %
31.08.2026 21:10 16,4 °C 84 % 1023,5 hPa 0,0 l/m² 1,7 km/h (1 Bft) O 89 ° 0 W/m² 13,7 °C 16,4 °C 4,8 km/h (1 Bft) 100 %
31.08.2026 21:05 16,4 °C 83 % 1023,3 hPa 0,0 l/m² 1,6 km/h (1 Bft) O 90 ° 0 W/m² 13,5 °C 16,4 °C 3,2 km/h (1 Bft) 100 %
31.08.2026 21:00 16,4 °C 82 % 1023,2 hPa 0,0 l/m² 1,5 km/h (1 Bft) O 91 ° 0 W/m² 13,3 °C 16,4 °C 4,8 km/h (1 Bft) 100 %
31.08.2026 20:55 16,3 °C 81 % 1023,1 hPa 0,0 l/m² 0,7 km/h (0 Bft) W-NW 295 ° 0 W/m² 13,0 °C 16,3 °C 3,2 km/h (1 Bft) 100 %
31.08.2026 20:50 16,3 °C 83 % 1023,0 hPa 0,0 l/m² 1,1 km/h (1 Bft) W-NW 295 ° 0 W/m² 13,4 °C 16,3 °C 4,8 km/h (1 Bft) 100 %
31.08.2026 20:45 16,3 °C 82 % 1022,8 hPa 0,0 l/m² 0,5 km/h (0 Bft) W-NW 295 ° 0 W/m² 13,2 °C 16,3 °C 4,8 km/h (1 Bft) 100 %
31.08.2026 20:40 16,3 °C 82 % 1022,8 hPa 0,0 l/m² 0,0 km/h (0 Bft) W-NW 295 ° 0 W/m² 13,2 °C 16,3 °C 0,0 km/h (0 Bft) 100 %
31.08.2026 20:35 16,2 °C 82 % 1022,7 hPa 0,0 l/m² 0,7 km/h (0 Bft) W-NW 295 ° 0 W/m² 13,1 °C 16,2 °C 3,2 km/h (1 Bft) 100 %
31.08.2026 20:30 16,1 °C 80 % 1022,7 hPa 0,0 l/m² 1,3 km/h (1 Bft) W-NW 295 ° 0 W/m² 12,6 °C 16,1 °C 4,8 km/h (1 Bft) 100 %
31.08.2026 20:25 16,1 °C 81 % 1022,7 hPa 0,0 l/m² 0,8 km/h (0 Bft) N-NW 347 ° 0 W/m² 12,8 °C 16,1 °C 4,8 km/h (1 Bft) 100 %
31.08.2026 20:20 16,1 °C 80 % 1022,7 hPa 0,0 l/m² 0,7 km/h (0 Bft) N-NW 347 ° 0 W/m² 12,6 °C 16,1 °C 3,2 km/h (1 Bft) 100 %
31.08.2026 20:15 16,2 °C 80 % 1022,6 hPa 0,0 l/m² 0,4 km/h (0 Bft) N-NW 347 ° 0 W/m² 12,7 °C 16,2 °C 3,2 km/h (1 Bft) 100 %
31.08.2026 20:10 16,3 °C 80 % 1022,5 hPa 0,0 l/m² 0,5 km/h (0 Bft) N-NW 347 ° 0 W/m² 12,8 °C 16,3 °C 4,8 km/h (1 Bft) 100 %
31.08.2026 20:05 16,5 °C 80 % 1022,4 hPa 0,0 l/m² 0,0 km/h (0 Bft) N-NW 347 ° 0 W/m² 13,0 °C 16,5 °C 0,0 km/h (0 Bft) 100 %
31.08.2026 20:00 16,6 °C 80 % 1022,4 hPa 0,0 l/m² 0,1 km/h (0 Bft) N-NW 347 ° 0 W/m² 13,1 °C 16,6 °C 1,6 km/h (1 Bft) 100 %
31.08.2026 19:55 16,7 °C 79 % 1022,4 hPa 0,0 l/m² 0,2 km/h (0 Bft) N-NW 347 ° 5 W/m² 13,0 °C 16,7 °C 1,6 km/h (1 Bft) 100 %
31.08.2026 19:50 16,9 °C 79 % 1022,3 hPa 0,0 l/m² 0,0 km/h (0 Bft) N-NW 347 ° 6 W/m² 13,2 °C 16,9 °C 0,0 km/h (0 Bft) 100 %
31.08.2026 19:45 17,0 °C 79 % 1022,4 hPa 0,0 l/m² 1,0 km/h (0 Bft) N-NW 347 ° 8 W/m² 13,3 °C 17,0 °C 3,2 km/h (1 Bft) 100 %
31.08.2026 19:40 17,2 °C 78 % 1022,3 hPa 0,0 l/m² 0,9 km/h (0 Bft) N 354 ° 12 W/m² 13,3 °C 17,2 °C 3,2 km/h (1 Bft) 100 %
31.08.2026 19:35 17,2 °C 78 % 1022,4 hPa 0,0 l/m² 1,0 km/h (0 Bft) N-NW 329 ° 13 W/m² 13,3 °C 17,2 °C 3,2 km/h (1 Bft) 100 %
31.08.2026 19:30 17,2 °C 78 % 1022,5 hPa 0,0 l/m² 1,8 km/h (1 Bft) N-NW 329 ° 15 W/m² 13,3 °C 17,2 °C 3,2 km/h (1 Bft) 100 %
31.08.2026 19:25 17,2 °C 78 % 1022,5 hPa 0,0 l/m² 0,8 km/h (0 Bft) N-NW 329 ° 18 W/m² 13,3 °C 17,2 °C 4,8 km/h (1 Bft) 100 %
31.08.2026 19:20 17,2 °C 78 % 1022,5 hPa 0,0 l/m² 0,6 km/h (0 Bft) N-NW 329 ° 20 W/m² 13,3 °C 17,2 °C 3,2 km/h (1 Bft) 100 %
31.08.2026 19:15 17,2 °C 78 % 1022,6 hPa 0,0 l/m² 0,1 km/h (0 Bft) N-NW 329 ° 23 W/m² 13,3 °C 17,2 °C 3,2 km/h (1 Bft) 100 %
31.08.2026 19:10 17,3 °C 79 % 1022,6 hPa 0,0 l/m² 1,6 km/h (1 Bft) N-NW 329 ° 23 W/m² 13,6 °C 17,3 °C 3,2 km/h (1 Bft) 100 %
31.08.2026 19:05 17,3 °C 78 % 1022,6 hPa 0,0 l/m² 1,0 km/h (0 Bft) N-NW 329 ° 43 W/m² 13,4 °C 17,3 °C 3,2 km/h (1 Bft) 100 %
31.08.2026 19:00 17,3 °C 78 % 1022,6 hPa 0,0 l/m² 2,1 km/h (1 Bft) N-NW 329 ° 51 W/m² 13,4 °C 17,3 °C 4,8 km/h (1 Bft) 100 %
31.08.2026 18:55 17,3 °C 78 % 1022,6 hPa 0,0 l/m² 0,1 km/h (0 Bft) N-NW 330 ° 34 W/m² 13,4 °C 17,3 °C 1,6 km/h (1 Bft) 100 %
31.08.2026 18:50 17,4 °C 78 % 1022,7 hPa 0,0 l/m² 1,8 km/h (1 Bft) N-NW 330 ° 30 W/m² 13,5 °C 17,4 °C 4,8 km/h (1 Bft) 100 %
31.08.2026 18:45 17,7 °C 77 % 1022,9 hPa 0,0 l/m² 3,0 km/h (1 Bft) N-NW 329 ° 15 W/m² 13,6 °C 17,7 °C 9,7 km/h (2 Bft) 100 %
31.08.2026 18:40 18,3 °C 75 % 1022,9 hPa 0,0 l/m² 4,3 km/h (1 Bft) O-SO 106 ° 11 W/m² 13,8 °C 18,3 °C 12,9 km/h (3 Bft) 100 %
31.08.2026 18:35 19,5 °C 71 % 1023,0 hPa 0,0 l/m² 4,4 km/h (1 Bft) NW 318 ° 18 W/m² 14,1 °C 19,5 °C 11,3 km/h (2 Bft) 100 %
31.08.2026 18:30 20,6 °C 65 % 1022,5 hPa 0,0 l/m² 4,9 km/h (1 Bft) N-NW 335 ° 20 W/m² 13,8 °C 20,6 °C 32,2 km/h (5 Bft) 100 %
31.08.2026 18:25 20,9 °C 57 % 1021,5 hPa 0,0 l/m² 4,2 km/h (1 Bft) N-NW 344 ° 16 W/m² 12,1 °C 20,9 °C 11,3 km/h (2 Bft) 100 %
31.08.2026 18:20 21,1 °C 55 % 1021,4 hPa 0,0 l/m² 5,6 km/h (1 Bft) O 97 ° 30 W/m² 11,7 °C 21,1 °C 12,9 km/h (3 Bft) 100 %
31.08.2026 18:15 21,2 °C 56 % 1021,3 hPa 0,0 l/m² 4,9 km/h (1 Bft) N-NW 342 ° 59 W/m² 12,1 °C 21,2 °C 17,7 km/h (3 Bft) 100 %
31.08.2026 18:10 21,5 °C 56 % 1021,2 hPa 0,0 l/m² 4,2 km/h (1 Bft) N-NW 332 ° 87 W/m² 12,3 °C 21,5 °C 12,9 km/h (3 Bft) 100 %
31.08.2026 18:05 21,7 °C 54 % 1021,2 hPa 0,0 l/m² 3,6 km/h (1 Bft) N-NW 331 ° 96 W/m² 12,0 °C 21,7 °C 9,7 km/h (2 Bft) 100 %
31.08.2026 18:00 22,1 °C 54 % 1021,1 hPa 0,0 l/m² 4,5 km/h (1 Bft) NO 43 ° 75 W/m² 12,3 °C 22,1 °C 14,5 km/h (3 Bft) 100 %
31.08.2026 17:55 22,7 °C 54 % 1021,0 hPa 0,0 l/m² 5,2 km/h (1 Bft) N-NW 337 ° 74 W/m² 12,9 °C 22,7 °C 22,5 km/h (4 Bft) 100 %
31.08.2026 17:50 23,4 °C 51 % 1021,5 hPa 0,0 l/m² 6,0 km/h (2 Bft) O 79 ° 299 W/m² 12,7 °C 23,4 °C 19,3 km/h (3 Bft) 100 %
31.08.2026 17:45 23,5 °C 53 % 1020,9 hPa 0,0 l/m² 3,3 km/h (1 Bft) N-NW 346 ° 307 W/m² 13,4 °C 23,5 °C 8,0 km/h (2 Bft) 100 %
31.08.2026 17:40 23,5 °C 52 % 1021,0 hPa 0,0 l/m² 4,0 km/h (1 Bft) S-SO 147 ° 311 W/m² 13,1 °C 23,5 °C 17,7 km/h (3 Bft) 100 %
31.08.2026 17:35 23,6 °C 53 % 1021,0 hPa 0,0 l/m² 4,0 km/h (1 Bft) NW 312 ° 318 W/m² 13,4 °C 23,6 °C 12,9 km/h (3 Bft) 100 %
31.08.2026 17:30 23,6 °C 51 % 1021,0 hPa 0,0 l/m² 5,2 km/h (1 Bft) O-NO 72 ° 322 W/m² 12,9 °C 23,6 °C 17,7 km/h (3 Bft) 100 %
31.08.2026 17:25 23,4 °C 50 % 1021,0 hPa 0,0 l/m² 5,9 km/h (2 Bft) NO 54 ° 336 W/m² 12,4 °C 23,4 °C 29,0 km/h (5 Bft) 100 %
31.08.2026 17:20 23,6 °C 51 % 1020,8 hPa 0,0 l/m² 7,1 km/h (2 Bft) O-SO 102 ° 350 W/m² 12,9 °C 23,4 °C 22,5 km/h (4 Bft) 100 %
31.08.2026 17:15 23,3 °C 52 % 1020,9 hPa 0,0 l/m² 7,2 km/h (2 Bft) O-NO 75 ° 362 W/m² 12,9 °C 23,1 °C 27,4 km/h (4 Bft) 100 %
31.08.2026 17:10 23,4 °C 52 % 1020,6 hPa 0,0 l/m² 7,4 km/h (2 Bft) O-NO 74 ° 375 W/m² 13,0 °C 23,1 °C 20,9 km/h (4 Bft) 100 %
31.08.2026 17:05 23,4 °C 52 % 1020,7 hPa 0,0 l/m² 6,8 km/h (2 Bft) N-NO 21 ° 393 W/m² 13,0 °C 23,3 °C 16,1 km/h (3 Bft) 100 %
31.08.2026 17:00 23,7 °C 57 % 1020,7 hPa 0,0 l/m² 7,3 km/h (2 Bft) NW 318 ° 419 W/m² 14,7 °C 23,4 °C 29,0 km/h (5 Bft) 100 %
31.08.2026 16:55 23,7 °C 51 % 1020,5 hPa 0,0 l/m² 5,9 km/h (2 Bft) W-SW 247 ° 456 W/m² 13,0 °C 23,7 °C 19,3 km/h (3 Bft) 100 %
31.08.2026 16:50 23,6 °C 58 % 1020,4 hPa 0,0 l/m² 5,9 km/h (2 Bft) N-NW 343 ° 506 W/m² 14,8 °C 23,6 °C 17,7 km/h (3 Bft) 100 %
31.08.2026 16:45 23,1 °C 52 % 1020,4 hPa 0,0 l/m² 6,0 km/h (2 Bft) O 95 ° 547 W/m² 12,7 °C 23,1 °C 17,7 km/h (3 Bft) 100 %
31.08.2026 16:40 23,0 °C 50 % 1020,7 hPa 0,0 l/m² 8,7 km/h (2 Bft) SO 133 ° 544 W/m² 12,0 °C 22,3 °C 27,4 km/h (4 Bft) 100 %
31.08.2026 16:35 23,7 °C 52 % 1020,7 hPa 0,0 l/m² 5,4 km/h (1 Bft) NW 314 ° 593 W/m² 13,2 °C 23,7 °C 14,5 km/h (3 Bft) 100 %
31.08.2026 16:30 23,1 °C 54 % 1020,6 hPa 0,0 l/m² 4,5 km/h (1 Bft) NW 320 ° 372 W/m² 13,3 °C 23,1 °C 14,5 km/h (3 Bft) 100 %
31.08.2026 16:25 23,5 °C 52 % 1020,8 hPa 0,0 l/m² 3,9 km/h (1 Bft) O-NO 66 ° 472 W/m² 13,1 °C 23,5 °C 12,9 km/h (3 Bft) 100 %
31.08.2026 16:20 23,8 °C 54 % 1020,7 hPa 0,0 l/m² 4,2 km/h (1 Bft) O-SO 112 ° 587 W/m² 13,9 °C 23,8 °C 16,1 km/h (3 Bft) 100 %
31.08.2026 16:15 23,5 °C 52 % 1020,5 hPa 0,0 l/m² 6,9 km/h (2 Bft) O-SO 118 ° 602 W/m² 13,1 °C 23,4 °C 29,0 km/h (5 Bft) 100 %
31.08.2026 16:10 23,4 °C 51 % 1020,5 hPa 0,0 l/m² 9,0 km/h (2 Bft) O-NO 75 ° 609 W/m² 12,7 °C 22,6 °C 22,5 km/h (4 Bft) 100 %
31.08.2026 16:05 24,1 °C 53 % 1020,6 hPa 0,0 l/m² 4,2 km/h (1 Bft) N-NW 345 ° 634 W/m² 13,9 °C 24,1 °C 12,9 km/h (3 Bft) 100 %
31.08.2026 16:00 23,6 °C 59 % 1020,4 hPa 0,0 l/m² 5,5 km/h (1 Bft) O-SO 108 ° 707 W/m² 15,1 °C 23,6 °C 16,1 km/h (3 Bft) 100 %
31.08.2026 15:55 23,8 °C 60 % 1020,4 hPa 0,0 l/m² 4,4 km/h (1 Bft) O-NO 68 ° 729 W/m² 15,6 °C 23,8 °C 9,7 km/h (2 Bft) 100 %
31.08.2026 15:50 23,4 °C 59 % 1020,6 hPa 0,0 l/m² 4,2 km/h (1 Bft) SW 216 ° 721 W/m² 14,9 °C 23,4 °C 17,7 km/h (3 Bft) 100 %
31.08.2026 15:45 22,3 °C 61 % 1020,6 hPa 0,0 l/m² 4,3 km/h (1 Bft) O 79 ° 456 W/m² 14,4 °C 22,3 °C 14,5 km/h (3 Bft) 100 %
31.08.2026 15:40 22,1 °C 59 % 1020,6 hPa 0,0 l/m² 5,5 km/h (1 Bft) O-SO 110 ° 183 W/m² 13,7 °C 22,1 °C 16,1 km/h (3 Bft) 100 %
31.08.2026 15:35 22,3 °C 59 % 1020,6 hPa 0,0 l/m² 2,9 km/h (1 Bft) S-SO 152 ° 248 W/m² 13,9 °C 22,3 °C 9,7 km/h (2 Bft) 100 %
31.08.2026 15:30 22,1 °C 58 % 1020,6 hPa 0,0 l/m² 4,5 km/h (1 Bft) SO 125 ° 271 W/m² 13,4 °C 22,1 °C 12,9 km/h (3 Bft) 100 %
31.08.2026 15:25 22,1 °C 61 % 1020,9 hPa 0,0 l/m² 4,9 km/h (1 Bft) O-NO 62 ° 229 W/m² 14,2 °C 22,1 °C 25,7 km/h (4 Bft) 100 %
31.08.2026 15:20 22,2 °C 59 % 1020,8 hPa 0,0 l/m² 2,6 km/h (1 Bft) SO 125 ° 163 W/m² 13,8 °C 22,2 °C 6,4 km/h (2 Bft) 100 %
31.08.2026 15:15 22,3 °C 58 % 1020,8 hPa 0,0 l/m² 3,4 km/h (1 Bft) SO 131 ° 269 W/m² 13,6 °C 22,3 °C 12,9 km/h (3 Bft) 100 %
31.08.2026 15:10 21,9 °C 60 % 1020,9 hPa 0,0 l/m² 7,7 km/h (2 Bft) SO 124 ° 235 W/m² 13,8 °C 21,4 °C 22,5 km/h (4 Bft) 100 %
31.08.2026 15:05 22,6 °C 57 % 1020,8 hPa 0,0 l/m² 4,6 km/h (1 Bft) S-SW 193 ° 731 W/m² 13,6 °C 22,6 °C 11,3 km/h (2 Bft) 100 %
31.08.2026 15:00 22,5 °C 60 % 1020,8 hPa 0,0 l/m² 4,6 km/h (1 Bft) NO 55 ° 599 W/m² 14,3 °C 22,5 °C 12,9 km/h (3 Bft) 100 %
31.08.2026 14:55 22,6 °C 58 % 1020,8 hPa 0,0 l/m² 5,0 km/h (1 Bft) S 191 ° 751 W/m² 13,9 °C 22,6 °C 14,5 km/h (3 Bft) 100 %
31.08.2026 14:50 21,8 °C 62 % 1021,0 hPa 0,0 l/m² 5,8 km/h (2 Bft) O-SO 110 ° 619 W/m² 14,2 °C 21,8 °C 17,7 km/h (3 Bft) 100 %
31.08.2026 14:45 21,9 °C 62 % 1020,9 hPa 0,0 l/m² 3,8 km/h (1 Bft) O-NO 77 ° 404 W/m² 14,3 °C 21,9 °C 12,9 km/h (3 Bft) 100 %
31.08.2026 14:40 21,9 °C 61 % 1020,7 hPa 0,0 l/m² 3,6 km/h (1 Bft) N-NW 331 ° 407 W/m² 14,0 °C 21,9 °C 9,7 km/h (2 Bft) 100 %
31.08.2026 14:35 22,1 °C 60 % 1020,7 hPa 0,0 l/m² 4,0 km/h (1 Bft) N 4 ° 418 W/m² 14,0 °C 22,1 °C 12,9 km/h (3 Bft) 100 %
31.08.2026 14:30 22,3 °C 60 % 1020,7 hPa 0,0 l/m² 3,2 km/h (1 Bft) O-SO 102 ° 638 W/m² 14,2 °C 22,3 °C 6,4 km/h (2 Bft) 100 %
31.08.2026 14:25 21,8 °C 61 % 1020,9 hPa 0,0 l/m² 3,3 km/h (1 Bft) O-SO 107 ° 299 W/m² 13,9 °C 21,8 °C 9,7 km/h (2 Bft) 100 %
31.08.2026 14:20 21,9 °C 62 % 1020,9 hPa 0,0 l/m² 3,0 km/h (1 Bft) S 183 ° 627 W/m² 14,3 °C 21,9 °C 9,7 km/h (2 Bft) 100 %
31.08.2026 14:15 20,9 °C 62 % 1021,0 hPa 0,0 l/m² 1,9 km/h (1 Bft) O-SO 120 ° 208 W/m² 13,3 °C 20,9 °C 6,4 km/h (2 Bft) 100 %
31.08.2026 14:10 20,9 °C 61 % 1021,0 hPa 0,0 l/m² 3,5 km/h (1 Bft) SW 228 ° 267 W/m² 13,1 °C 20,9 °C 9,7 km/h (2 Bft) 100 %
31.08.2026 14:05 21,1 °C 61 % 1021,3 hPa 0,0 l/m² 4,9 km/h (1 Bft) O 92 ° 205 W/m² 13,3 °C 21,1 °C 17,7 km/h (3 Bft) 100 %
31.08.2026 14:00 21,4 °C 60 % 1021,3 hPa 0,0 l/m² 5,3 km/h (1 Bft) S-SW 201 ° 616 W/m² 13,3 °C 21,4 °C 12,9 km/h (3 Bft) 100 %
31.08.2026 13:55 21,3 °C 60 % 1021,2 hPa 0,0 l/m² 7,8 km/h (2 Bft) SO 126 ° 813 W/m² 13,2 °C 20,8 °C 19,3 km/h (3 Bft) 100 %
31.08.2026 13:50 22,2 °C 57 % 1021,3 hPa 0,0 l/m² 3,8 km/h (1 Bft) O-SO 112 ° 845 W/m² 13,3 °C 22,2 °C 11,3 km/h (2 Bft) 100 %
31.08.2026 13:45 21,8 °C 66 % 1021,3 hPa 0,0 l/m² 6,0 km/h (2 Bft) O-SO 113 ° 831 W/m² 15,2 °C 21,8 °C 16,1 km/h (3 Bft) 100 %
31.08.2026 13:40 21,6 °C 61 % 1021,2 hPa 0,0 l/m² 5,4 km/h (1 Bft) O-SO 109 ° 852 W/m² 13,7 °C 21,6 °C 12,9 km/h (3 Bft) 100 %
31.08.2026 13:35 21,8 °C 62 % 1021,2 hPa 0,0 l/m² 3,3 km/h (1 Bft) W-NW 295 ° 200 W/m² 14,2 °C 21,8 °C 12,9 km/h (3 Bft) 100 %
31.08.2026 13:30 21,6 °C 62 % 1021,3 hPa 0,0 l/m² 3,4 km/h (1 Bft) O-SO 120 ° 669 W/m² 14,0 °C 21,6 °C 9,7 km/h (2 Bft) 100 %
31.08.2026 13:25 20,7 °C 66 % 1021,2 hPa 0,0 l/m² 4,2 km/h (1 Bft) O-SO 117 ° 680 W/m² 14,1 °C 20,7 °C 12,9 km/h (3 Bft) 100 %
31.08.2026 13:20 20,4 °C 65 % 1021,4 hPa 0,0 l/m² 5,7 km/h (1 Bft) S 178 ° 406 W/m² 13,6 °C 20,4 °C 11,3 km/h (2 Bft) 100 %
31.08.2026 13:15 20,6 °C 67 % 1021,3 hPa 0,0 l/m² 3,5 km/h (1 Bft) N-NO 28 ° 535 W/m² 14,3 °C 20,6 °C 11,3 km/h (2 Bft) 100 %
31.08.2026 13:10 19,9 °C 66 % 1021,4 hPa 0,0 l/m² 4,9 km/h (1 Bft) W 268 ° 203 W/m² 13,4 °C 19,9 °C 16,1 km/h (3 Bft) 100 %
31.08.2026 13:05 20,3 °C 65 % 1021,6 hPa 0,0 l/m² 4,5 km/h (1 Bft) O-NO 68 ° 189 W/m² 13,5 °C 20,3 °C 11,3 km/h (2 Bft) 100 %
31.08.2026 13:00 20,7 °C 64 % 1021,4 hPa 0,0 l/m² 1,9 km/h (1 Bft) S 191 ° 194 W/m² 13,6 °C 20,7 °C 6,4 km/h (2 Bft) 100 %
31.08.2026 12:55 20,9 °C 65 % 1021,2 hPa 0,0 l/m² 2,5 km/h (1 Bft) S 187 ° 816 W/m² 14,1 °C 20,9 °C 6,4 km/h (2 Bft) 100 %
31.08.2026 12:50 20,7 °C 65 % 1021,3 hPa 0,0 l/m² 5,1 km/h (1 Bft) S 183 ° 860 W/m² 13,9 °C 20,7 °C 9,7 km/h (2 Bft) 100 %
31.08.2026 12:45 20,6 °C 63 % 1021,3 hPa 0,0 l/m² 3,6 km/h (1 Bft) W-SW 244 ° 341 W/m² 13,3 °C 20,6 °C 12,9 km/h (3 Bft) 100 %
31.08.2026 12:40 20,7 °C 68 % 1021,3 hPa 0,0 l/m² 1,6 km/h (1 Bft) NW 312 ° 421 W/m² 14,6 °C 20,7 °C 4,8 km/h (1 Bft) 100 %
31.08.2026 12:35 20,5 °C 70 % 1021,2 hPa 0,0 l/m² 3,3 km/h (1 Bft) N-NO 23 ° 616 W/m² 14,8 °C 20,5 °C 11,3 km/h (2 Bft) 100 %
31.08.2026 12:30 20,2 °C 66 % 1021,5 hPa 0,0 l/m² 2,5 km/h (1 Bft) S 184 ° 632 W/m² 13,6 °C 20,2 °C 11,3 km/h (2 Bft) 100 %
31.08.2026 12:25 19,6 °C 70 % 1021,5 hPa 0,0 l/m² 3,5 km/h (1 Bft) N 4 ° 452 W/m² 14,0 °C 19,6 °C 6,4 km/h (2 Bft) 100 %
31.08.2026 12:20 19,2 °C 67 % 1021,5 hPa 0,0 l/m² 4,3 km/h (1 Bft) O 79 ° 503 W/m² 12,9 °C 19,2 °C 14,5 km/h (3 Bft) 100 %
31.08.2026 12:15 18,8 °C 68 % 1021,6 hPa 0,0 l/m² 7,0 km/h (2 Bft) O 95 ° 194 W/m² 12,8 °C 18,5 °C 16,1 km/h (3 Bft) 100 %
31.08.2026 12:10 19,0 °C 69 % 1021,8 hPa 0,0 l/m² 4,6 km/h (1 Bft) O-SO 112 ° 238 W/m² 13,2 °C 19,0 °C 12,9 km/h (3 Bft) 100 %
31.08.2026 12:05 19,3 °C 67 % 1021,6 hPa 0,0 l/m² 3,4 km/h (1 Bft) SO 140 ° 413 W/m² 13,0 °C 19,3 °C 8,0 km/h (2 Bft) 100 %
31.08.2026 12:00 19,4 °C 68 % 1021,5 hPa 0,0 l/m² 5,0 km/h (1 Bft) O-SO 102 ° 680 W/m² 13,3 °C 19,4 °C 17,7 km/h (3 Bft) 100 %
31.08.2026 11:55 19,2 °C 76 % 1021,4 hPa 0,0 l/m² 3,7 km/h (1 Bft) N-NW 335 ° 273 W/m² 14,9 °C 19,2 °C 11,3 km/h (2 Bft) 100 %
31.08.2026 11:50 19,1 °C 70 % 1021,5 hPa 0,0 l/m² 4,4 km/h (1 Bft) N 10 ° 639 W/m² 13,5 °C 19,1 °C 9,7 km/h (2 Bft) 100 %
31.08.2026 11:45 19,1 °C 73 % 1021,3 hPa 0,0 l/m² 1,9 km/h (1 Bft) NW 313 ° 439 W/m² 14,1 °C 19,1 °C 8,0 km/h (2 Bft) 100 %
31.08.2026 11:40 18,4 °C 78 % 1021,6 hPa 0,0 l/m² 4,5 km/h (1 Bft) O-SO 117 ° 340 W/m² 14,5 °C 18,4 °C 9,7 km/h (2 Bft) 100 %
31.08.2026 11:35 18,4 °C 73 % 1021,6 hPa 0,0 l/m² 3,4 km/h (1 Bft) N-NW 347 ° 167 W/m² 13,5 °C 18,4 °C 11,3 km/h (2 Bft) 100 %
31.08.2026 11:30 18,3 °C 73 % 1021,7 hPa 0,0 l/m² 5,5 km/h (1 Bft) O-SO 110 ° 147 W/m² 13,4 °C 18,3 °C 14,5 km/h (3 Bft) 100 %
31.08.2026 11:25 18,6 °C 73 % 1021,4 hPa 0,0 l/m² 2,5 km/h (1 Bft) SO 136 ° 149 W/m² 13,7 °C 18,6 °C 12,9 km/h (3 Bft) 100 %
31.08.2026 11:20 18,4 °C 76 % 1021,3 hPa 0,0 l/m² 4,1 km/h (1 Bft) W-NW 289 ° 208 W/m² 14,1 °C 18,4 °C 11,3 km/h (2 Bft) 100 %
31.08.2026 11:15 18,1 °C 73 % 1021,4 hPa 0,0 l/m² 5,5 km/h (1 Bft) O 87 ° 100 W/m² 13,2 °C 18,1 °C 14,5 km/h (3 Bft) 100 %
31.08.2026 11:10 18,2 °C 76 % 1021,5 hPa 0,0 l/m² 3,1 km/h (1 Bft) N-NW 335 ° 130 W/m² 13,9 °C 18,2 °C 6,4 km/h (2 Bft) 100 %
31.08.2026 11:05 18,3 °C 76 % 1021,4 hPa 0,0 l/m² 3,7 km/h (1 Bft) O 96 ° 274 W/m² 14,0 °C 18,3 °C 9,7 km/h (2 Bft) 100 %
31.08.2026 11:00 18,2 °C 75 % 1021,4 hPa 0,0 l/m² 4,1 km/h (1 Bft) SO 127 ° 266 W/m² 13,7 °C 18,2 °C 12,9 km/h (3 Bft) 100 %
31.08.2026 10:55 18,0 °C 75 % 1021,3 hPa 0,0 l/m² 6,5 km/h (2 Bft) NO 35 ° 129 W/m² 13,5 °C 18,0 °C 14,5 km/h (3 Bft) 100 %
31.08.2026 10:50 17,9 °C 77 % 1021,2 hPa 0,0 l/m² 3,7 km/h (1 Bft) O 96 ° 142 W/m² 13,8 °C 17,9 °C 11,3 km/h (2 Bft) 100 %
31.08.2026 10:45 17,8 °C 77 % 1021,1 hPa 0,0 l/m² 3,9 km/h (1 Bft) SO 129 ° 137 W/m² 13,7 °C 17,8 °C 19,3 km/h (3 Bft) 100 %
31.08.2026 10:40 17,7 °C 76 % 1021,1 hPa 0,0 l/m² 5,2 km/h (1 Bft) O-SO 112 ° 104 W/m² 13,4 °C 17,7 °C 20,9 km/h (4 Bft) 100 %
31.08.2026 10:35 17,6 °C 77 % 1021,0 hPa 0,0 l/m² 3,3 km/h (1 Bft) O 89 ° 112 W/m² 13,5 °C 17,6 °C 6,4 km/h (2 Bft) 100 %
31.08.2026 10:30 17,4 °C 77 % 1020,9 hPa 0,0 l/m² 2,4 km/h (1 Bft) S-SW 193 ° 87 W/m² 13,3 °C 17,4 °C 6,4 km/h (2 Bft) 100 %
31.08.2026 10:25 17,3 °C 78 % 1021,0 hPa 0,0 l/m² 1,7 km/h (1 Bft) SW 222 ° 57 W/m² 13,4 °C 17,3 °C 6,4 km/h (2 Bft) 100 %
31.08.2026 10:20 17,3 °C 80 % 1020,9 hPa 0,0 l/m² 3,1 km/h (1 Bft) O 88 ° 57 W/m² 13,8 °C 17,3 °C 12,9 km/h (3 Bft) 100 %
31.08.2026 10:15 17,1 °C 79 % 1020,9 hPa 0,0 l/m² 1,7 km/h (1 Bft) S-SW 195 ° 45 W/m² 13,4 °C 17,1 °C 11,3 km/h (2 Bft) 100 %
31.08.2026 10:10 16,9 °C 78 % 1020,9 hPa 0,0 l/m² 3,9 km/h (1 Bft) O-SO 102 ° 44 W/m² 13,0 °C 16,9 °C 14,5 km/h (3 Bft) 100 %
31.08.2026 10:05 16,8 °C 80 % 1020,8 hPa 0,0 l/m² 1,7 km/h (1 Bft) N-NO 27 ° 47 W/m² 13,3 °C 16,8 °C 8,0 km/h (2 Bft) 100 %
31.08.2026 10:00 16,7 °C 80 % 1020,8 hPa 0,0 l/m² 2,3 km/h (1 Bft) W-NW 287 ° 47 W/m² 13,2 °C 16,7 °C 9,7 km/h (2 Bft) 100 %
31.08.2026 09:55 16,6 °C 80 % 1020,8 hPa 0,0 l/m² 2,7 km/h (1 Bft) O 85 ° 47 W/m² 13,1 °C 16,6 °C 8,0 km/h (2 Bft) 100 %
31.08.2026 09:50 16,5 °C 82 % 1020,7 hPa 0,0 l/m² 1,6 km/h (1 Bft) O-SO 102 ° 53 W/m² 13,4 °C 16,5 °C 12,9 km/h (3 Bft) 100 %
31.08.2026 09:45 16,3 °C 83 % 1020,8 hPa 0,0 l/m² 1,3 km/h (1 Bft) SW 233 ° 50 W/m² 13,4 °C 16,3 °C 4,8 km/h (1 Bft) 100 %
31.08.2026 09:40 16,2 °C 85 % 1020,7 hPa 0,0 l/m² 4,8 km/h (1 Bft) O 100 ° 68 W/m² 13,7 °C 16,2 °C 17,7 km/h (3 Bft) 100 %
31.08.2026 09:35 15,8 °C 87 % 1020,7 hPa 0,0 l/m² 2,0 km/h (1 Bft) N-NO 30 ° 78 W/m² 13,6 °C 15,8 °C 6,4 km/h (2 Bft) 100 %
31.08.2026 09:30 15,9 °C 89 % 1020,6 hPa 0,0 l/m² 2,0 km/h (1 Bft) N-NO 32 ° 74 W/m² 14,1 °C 15,9 °C 4,8 km/h (1 Bft) 100 %
31.08.2026 09:25 15,9 °C 88 % 1020,4 hPa 0,0 l/m² 1,9 km/h (1 Bft) NO 37 ° 46 W/m² 13,9 °C 15,9 °C 4,8 km/h (1 Bft) 100 %
31.08.2026 09:20 15,9 °C 87 % 1020,5 hPa 0,0 l/m² 2,8 km/h (1 Bft) NO 37 ° 48 W/m² 13,7 °C 15,9 °C 9,7 km/h (2 Bft) 100 %
31.08.2026 09:15 16,0 °C 88 % 1020,5 hPa 0,0 l/m² 2,6 km/h (1 Bft) N 359 ° 37 W/m² 14,0 °C 16,0 °C 6,4 km/h (2 Bft) 100 %
31.08.2026 09:10 15,9 °C 87 % 1020,5 hPa 0,0 l/m² 2,1 km/h (1 Bft) NW 319 ° 44 W/m² 13,7 °C 15,9 °C 8,0 km/h (2 Bft) 100 %
31.08.2026 09:05 15,9 °C 88 % 1020,6 hPa 0,0 l/m² 2,1 km/h (1 Bft) O 86 ° 34 W/m² 13,9 °C 15,9 °C 9,7 km/h (2 Bft) 100 %
31.08.2026 09:00 15,9 °C 88 % 1020,3 hPa 0,0 l/m² 2,8 km/h (1 Bft) NW 324 ° 28 W/m² 13,9 °C 15,9 °C 6,4 km/h (2 Bft) 100 %
31.08.2026 08:55 15,9 °C 89 % 1020,4 hPa 0,0 l/m² 2,7 km/h (1 Bft) N 350 ° 40 W/m² 14,1 °C 15,9 °C 6,4 km/h (2 Bft) 100 %
31.08.2026 08:50 16,0 °C 88 % 1020,5 hPa 0,0 l/m² 1,2 km/h (1 Bft) N-NW 331 ° 73 W/m² 14,0 °C 16,0 °C 3,2 km/h (1 Bft) 100 %
31.08.2026 08:45 15,9 °C 88 % 1020,4 hPa 0,0 l/m² 3,4 km/h (1 Bft) N-NW 331 ° 60 W/m² 13,9 °C 15,9 °C 11,3 km/h (2 Bft) 100 %
31.08.2026 08:40 16,0 °C 89 % 1020,3 hPa 0,0 l/m² 1,9 km/h (1 Bft) N 354 ° 35 W/m² 14,2 °C 16,0 °C 4,8 km/h (1 Bft) 100 %
31.08.2026 08:35 16,0 °C 89 % 1020,3 hPa 0,0 l/m² 2,0 km/h (1 Bft) N 354 ° 31 W/m² 14,2 °C 16,0 °C 6,4 km/h (2 Bft) 100 %
31.08.2026 08:30 15,9 °C 88 % 1020,2 hPa 0,0 l/m² 3,1 km/h (1 Bft) SO 138 ° 41 W/m² 13,9 °C 15,9 °C 9,7 km/h (2 Bft) 100 %
31.08.2026 08:25 16,1 °C 90 % 1020,1 hPa 0,0 l/m² 2,1 km/h (1 Bft) N-NW 328 ° 33 W/m² 14,5 °C 16,1 °C 6,4 km/h (2 Bft) 100 %
31.08.2026 08:20 16,1 °C 89 % 1020,1 hPa 0,0 l/m² 2,7 km/h (1 Bft) W-NW 293 ° 19 W/m² 14,3 °C 16,1 °C 8,0 km/h (2 Bft) 100 %
31.08.2026 08:15 15,9 °C 90 % 1020,0 hPa 0,0 l/m² 2,5 km/h (1 Bft) N-NW 332 ° 35 W/m² 14,3 °C 15,9 °C 6,4 km/h (2 Bft) 100 %
31.08.2026 08:10 16,0 °C 91 % 1020,0 hPa 0,0 l/m² 1,5 km/h (1 Bft) N-NW 335 ° 37 W/m² 14,5 °C 16,0 °C 4,8 km/h (1 Bft) 100 %
31.08.2026 08:05 16,1 °C 90 % 1020,0 hPa 0,0 l/m² 2,6 km/h (1 Bft) N-NW 335 ° 36 W/m² 14,5 °C 16,1 °C 4,8 km/h (1 Bft) 100 %
31.08.2026 08:00 16,2 °C 90 % 1020,0 hPa 0,0 l/m² 2,0 km/h (1 Bft) N-NW 331 ° 34 W/m² 14,6 °C 16,2 °C 6,4 km/h (2 Bft) 100 %
31.08.2026 07:55 16,3 °C 91 % 1020,0 hPa 0,0 l/m² 2,5 km/h (1 Bft) NW 326 ° 36 W/m² 14,8 °C 16,3 °C 4,8 km/h (1 Bft) 100 %
31.08.2026 07:50 16,3 °C 90 % 1019,9 hPa 0,0 l/m² 1,3 km/h (1 Bft) NW 316 ° 28 W/m² 14,7 °C 16,3 °C 4,8 km/h (1 Bft) 100 %
31.08.2026 07:45 16,3 °C 90 % 1019,9 hPa 0,0 l/m² 1,0 km/h (0 Bft) NW 316 ° 25 W/m² 14,7 °C 16,3 °C 4,8 km/h (1 Bft) 100 %
31.08.2026 07:40 16,1 °C 91 % 1020,0 hPa 0,0 l/m² 3,7 km/h (1 Bft) S 179 ° 15 W/m² 14,6 °C 16,1 °C 14,5 km/h (3 Bft) 100 %
31.08.2026 07:35 16,0 °C 92 % 1020,0 hPa 0,0 l/m² 4,4 km/h (1 Bft) NO 47 ° 12 W/m² 14,7 °C 16,0 °C 14,5 km/h (3 Bft) 100 %
31.08.2026 07:30 15,8 °C 93 % 1020,1 hPa 0,0 l/m² 4,1 km/h (1 Bft) N 354 ° 7 W/m² 14,7 °C 15,8 °C 11,3 km/h (2 Bft) 100 %
31.08.2026 07:25 15,9 °C 93 % 1019,9 hPa 0,0 l/m² 2,2 km/h (1 Bft) N-NW 339 ° 8 W/m² 14,8 °C 15,9 °C 6,4 km/h (2 Bft) 100 %
31.08.2026 07:20 15,9 °C 93 % 1019,8 hPa 0,0 l/m² 1,0 km/h (0 Bft) N-NW 337 ° 3 W/m² 14,8 °C 15,9 °C 4,8 km/h (1 Bft) 100 %
31.08.2026 07:15 15,9 °C 93 % 1019,7 hPa 0,0 l/m² 2,5 km/h (1 Bft) N-NW 337 ° 1 W/m² 14,8 °C 15,9 °C 6,4 km/h (2 Bft) 100 %
31.08.2026 07:10 15,8 °C 93 % 1019,8 hPa 0,0 l/m² 2,1 km/h (1 Bft) NW 316 ° 0 W/m² 14,7 °C 15,8 °C 6,4 km/h (2 Bft) 100 %
31.08.2026 07:05 15,8 °C 93 % 1019,6 hPa 0,0 l/m² 1,9 km/h (1 Bft) NO 39 ° 0 W/m² 14,7 °C 15,8 °C 4,8 km/h (1 Bft) 100 %
31.08.2026 07:00 15,8 °C 93 % 1019,6 hPa 0,0 l/m² 1,6 km/h (1 Bft) O-NO 70 ° 0 W/m² 14,7 °C 15,8 °C 6,4 km/h (2 Bft) 100 %
31.08.2026 06:55 15,8 °C 93 % 1019,8 hPa 0,0 l/m² 2,3 km/h (1 Bft) N-NO 21 ° 0 W/m² 14,7 °C 15,8 °C 8,0 km/h (2 Bft) 100 %
31.08.2026 06:50 15,8 °C 94 % 1019,6 hPa 0,0 l/m² 2,3 km/h (1 Bft) N 10 ° 0 W/m² 14,8 °C 15,8 °C 4,8 km/h (1 Bft) 100 %
31.08.2026 06:45 15,7 °C 93 % 1019,5 hPa 0,0 l/m² 1,5 km/h (1 Bft) N-NW 346 ° 0 W/m² 14,6 °C 15,7 °C 4,8 km/h (1 Bft) 100 %
31.08.2026 06:40 15,8 °C 93 % 1019,6 hPa 0,0 l/m² 2,6 km/h (1 Bft) N-NO 22 ° 0 W/m² 14,7 °C 15,8 °C 4,8 km/h (1 Bft) 100 %
31.08.2026 06:35 15,7 °C 93 % 1019,6 hPa 0,0 l/m² 1,8 km/h (1 Bft) NO 54 ° 0 W/m² 14,6 °C 15,7 °C 3,2 km/h (1 Bft) 100 %
31.08.2026 06:30 15,8 °C 93 % 1019,6 hPa 0,0 l/m² 1,5 km/h (1 Bft) NO 54 ° 0 W/m² 14,7 °C 15,8 °C 3,2 km/h (1 Bft) 100 %
31.08.2026 06:25 15,8 °C 93 % 1019,4 hPa 0,0 l/m² 1,3 km/h (1 Bft) NO 54 ° 0 W/m² 14,7 °C 15,8 °C 3,2 km/h (1 Bft) 100 %
31.08.2026 06:20 16,0 °C 93 % 1019,4 hPa 0,0 l/m² 2,7 km/h (1 Bft) NO 54 ° 0 W/m² 14,9 °C 16,0 °C 4,8 km/h (1 Bft) 100 %
31.08.2026 06:15 16,2 °C 93 % 1019,4 hPa 0,0 l/m² 1,0 km/h (0 Bft) N 354 ° 0 W/m² 15,1 °C 16,2 °C 4,8 km/h (1 Bft) 100 %
31.08.2026 06:10 16,3 °C 93 % 1019,5 hPa 0,0 l/m² 0,3 km/h (0 Bft) N 354 ° 0 W/m² 15,2 °C 16,3 °C 3,2 km/h (1 Bft) 100 %
31.08.2026 06:05 16,3 °C 93 % 1019,5 hPa 0,0 l/m² 1,0 km/h (0 Bft) N 354 ° 0 W/m² 15,2 °C 16,3 °C 3,2 km/h (1 Bft) 100 %
31.08.2026 06:00 16,3 °C 93 % 1019,4 hPa 0,0 l/m² 2,3 km/h (1 Bft) N 354 ° 0 W/m² 15,2 °C 16,3 °C 4,8 km/h (1 Bft) 100 %
31.08.2026 05:55 16,4 °C 93 % 1019,4 hPa 0,0 l/m² 1,4 km/h (1 Bft) N 350 ° 0 W/m² 15,3 °C 16,4 °C 3,2 km/h (1 Bft) 100 %
31.08.2026 05:50 16,4 °C 93 % 1019,3 hPa 0,0 l/m² 1,8 km/h (1 Bft) N 350 ° 0 W/m² 15,3 °C 16,4 °C 4,8 km/h (1 Bft) 100 %
31.08.2026 05:45 16,4 °C 93 % 1019,4 hPa 0,0 l/m² 1,9 km/h (1 Bft) N 350 ° 0 W/m² 15,3 °C 16,4 °C 3,2 km/h (1 Bft) 100 %
31.08.2026 05:40 16,6 °C 93 % 1019,3 hPa 0,0 l/m² 1,3 km/h (1 Bft) N 350 ° 0 W/m² 15,5 °C 16,6 °C 3,2 km/h (1 Bft) 100 %
31.08.2026 05:35 16,6 °C 93 % 1019,4 hPa 0,0 l/m² 2,5 km/h (1 Bft) N-NW 346 ° 0 W/m² 15,5 °C 16,6 °C 8,0 km/h (2 Bft) 100 %
31.08.2026 05:30 16,5 °C 93 % 1019,4 hPa 0,0 l/m² 3,7 km/h (1 Bft) N-NW 344 ° 0 W/m² 15,4 °C 16,5 °C 12,9 km/h (3 Bft) 100 %
31.08.2026 05:25 16,4 °C 93 % 1019,5 hPa 0,0 l/m² 4,3 km/h (1 Bft) S 179 ° 0 W/m² 15,3 °C 16,4 °C 12,9 km/h (3 Bft) 100 %
31.08.2026 05:20 16,5 °C 93 % 1019,4 hPa 0,0 l/m² 1,6 km/h (1 Bft) N 4 ° 0 W/m² 15,4 °C 16,5 °C 4,8 km/h (1 Bft) 100 %
31.08.2026 05:15 16,4 °C 93 % 1019,3 hPa 0,0 l/m² 2,2 km/h (1 Bft) SO 125 ° 0 W/m² 15,3 °C 16,4 °C 6,4 km/h (2 Bft) 100 %
31.08.2026 05:10 16,4 °C 93 % 1019,3 hPa 0,0 l/m² 1,6 km/h (1 Bft) N-NO 20 ° 0 W/m² 15,3 °C 16,4 °C 4,8 km/h (1 Bft) 100 %
31.08.2026 05:05 16,3 °C 94 % 1019,3 hPa 0,0 l/m² 3,6 km/h (1 Bft) NO 55 ° 0 W/m² 15,3 °C 16,3 °C 8,0 km/h (2 Bft) 100 %
31.08.2026 05:00 16,3 °C 93 % 1019,2 hPa 0,0 l/m² 1,9 km/h (1 Bft) S-SW 210 ° 0 W/m² 15,2 °C 16,3 °C 6,4 km/h (2 Bft) 100 %
31.08.2026 04:55 16,3 °C 93 % 1019,2 hPa 0,0 l/m² 1,0 km/h (0 Bft) N 349 ° 0 W/m² 15,2 °C 16,3 °C 3,2 km/h (1 Bft) 100 %
31.08.2026 04:50 16,2 °C 93 % 1019,1 hPa 0,0 l/m² 2,2 km/h (1 Bft) N 349 ° 0 W/m² 15,1 °C 16,2 °C 4,8 km/h (1 Bft) 100 %
31.08.2026 04:45 16,2 °C 93 % 1019,1 hPa 0,0 l/m² 2,3 km/h (1 Bft) N-NW 329 ° 0 W/m² 15,1 °C 16,2 °C 6,4 km/h (2 Bft) 100 %
31.08.2026 04:40 16,2 °C 93 % 1019,0 hPa 0,0 l/m² 0,6 km/h (0 Bft) N 4 ° 0 W/m² 15,1 °C 16,2 °C 3,2 km/h (1 Bft) 100 %
31.08.2026 04:35 16,2 °C 93 % 1018,9 hPa 0,0 l/m² 0,5 km/h (0 Bft) N 4 ° 0 W/m² 15,1 °C 16,2 °C 3,2 km/h (1 Bft) 100 %
31.08.2026 04:30 16,2 °C 92 % 1019,0 hPa 0,0 l/m² 1,3 km/h (1 Bft) N 4 ° 0 W/m² 14,9 °C 16,2 °C 3,2 km/h (1 Bft) 100 %
31.08.2026 04:25 16,2 °C 92 % 1019,0 hPa 0,0 l/m² 2,3 km/h (1 Bft) N 4 ° 0 W/m² 14,9 °C 16,2 °C 4,8 km/h (1 Bft) 100 %
31.08.2026 04:20 16,3 °C 92 % 1018,9 hPa 0,0 l/m² 2,0 km/h (1 Bft) N 8 ° 0 W/m² 15,0 °C 16,3 °C 3,2 km/h (1 Bft) 100 %
31.08.2026 04:15 16,4 °C 92 % 1018,9 hPa 0,0 l/m² 2,7 km/h (1 Bft) N 8 ° 0 W/m² 15,1 °C 16,4 °C 4,8 km/h (1 Bft) 100 %
31.08.2026 04:10 16,5 °C 91 % 1019,0 hPa 0,0 l/m² 1,9 km/h (1 Bft) N 4 ° 0 W/m² 15,0 °C 16,5 °C 3,2 km/h (1 Bft) 100 %
31.08.2026 04:05 16,7 °C 90 % 1018,7 hPa 0,0 l/m² 2,5 km/h (1 Bft) N 4 ° 0 W/m² 15,0 °C 16,7 °C 4,8 km/h (1 Bft) 100 %
31.08.2026 04:00 16,7 °C 90 % 1018,8 hPa 0,0 l/m² 2,9 km/h (1 Bft) N-NO 29 ° 0 W/m² 15,0 °C 16,7 °C 6,4 km/h (2 Bft) 100 %
31.08.2026 03:55 16,9 °C 89 % 1018,6 hPa 0,0 l/m² 2,8 km/h (1 Bft) N-NO 12 ° 0 W/m² 15,1 °C 16,9 °C 6,4 km/h (2 Bft) 100 %
31.08.2026 03:50 16,9 °C 89 % 1018,8 hPa 0,0 l/m² 4,5 km/h (1 Bft) S-SW 204 ° 0 W/m² 15,1 °C 16,9 °C 12,9 km/h (3 Bft) 100 %
31.08.2026 03:45 16,8 °C 89 % 1018,7 hPa 0,0 l/m² 5,8 km/h (2 Bft) O-SO 119 ° 0 W/m² 15,0 °C 16,8 °C 14,5 km/h (3 Bft) 100 %
31.08.2026 03:40 16,8 °C 90 % 1018,9 hPa 0,0 l/m² 7,3 km/h (2 Bft) O 95 ° 0 W/m² 15,1 °C 16,3 °C 30,6 km/h (5 Bft) 100 %
31.08.2026 03:35 16,4 °C 91 % 1018,7 hPa 0,0 l/m² 6,0 km/h (2 Bft) N-NO 18 ° 0 W/m² 14,9 °C 16,4 °C 17,7 km/h (3 Bft) 100 %
31.08.2026 03:30 16,0 °C 92 % 1018,8 hPa 0,0 l/m² 3,7 km/h (1 Bft) S-SO 157 ° 0 W/m² 14,7 °C 16,0 °C 12,9 km/h (3 Bft) 100 %
31.08.2026 03:25 15,8 °C 93 % 1018,7 hPa 0,0 l/m² 3,3 km/h (1 Bft) N 10 ° 0 W/m² 14,7 °C 15,8 °C 11,3 km/h (2 Bft) 100 %
31.08.2026 03:20 15,8 °C 93 % 1018,8 hPa 0,0 l/m² 2,4 km/h (1 Bft) N-NW 341 ° 0 W/m² 14,7 °C 15,8 °C 6,4 km/h (2 Bft) 100 %
31.08.2026 03:15 15,8 °C 93 % 1018,6 hPa 0,0 l/m² 2,1 km/h (1 Bft) N 4 ° 0 W/m² 14,7 °C 15,8 °C 4,8 km/h (1 Bft) 100 %
31.08.2026 03:10 15,8 °C 93 % 1018,6 hPa 0,0 l/m² 2,8 km/h (1 Bft) N 359 ° 0 W/m² 14,7 °C 15,8 °C 4,8 km/h (1 Bft) 100 %
31.08.2026 03:05 15,9 °C 93 % 1018,5 hPa 0,0 l/m² 1,7 km/h (1 Bft) N 359 ° 0 W/m² 14,8 °C 15,9 °C 4,8 km/h (1 Bft) 100 %
31.08.2026 03:00 15,9 °C 93 % 1018,5 hPa 0,0 l/m² 2,5 km/h (1 Bft) N 359 ° 0 W/m² 14,8 °C 15,9 °C 6,4 km/h (2 Bft) 100 %
31.08.2026 02:55 15,9 °C 93 % 1018,3 hPa 0,0 l/m² 4,1 km/h (1 Bft) N-NW 330 ° 0 W/m² 14,8 °C 15,9 °C 8,0 km/h (2 Bft) 100 %
31.08.2026 02:50 16,0 °C 93 % 1018,2 hPa 0,0 l/m² 3,2 km/h (1 Bft) NW 308 ° 0 W/m² 14,9 °C 16,0 °C 4,8 km/h (1 Bft) 100 %
31.08.2026 02:45 16,1 °C 93 % 1018,3 hPa 0,0 l/m² 2,7 km/h (1 Bft) NW 305 ° 0 W/m² 15,0 °C 16,1 °C 4,8 km/h (1 Bft) 100 %
31.08.2026 02:40 16,1 °C 93 % 1018,3 hPa 0,2 l/m² 3,1 km/h (1 Bft) NW 304 ° 0 W/m² 15,0 °C 16,1 °C 8,0 km/h (2 Bft) 100 %
31.08.2026 02:35 16,2 °C 93 % 1018,4 hPa 0,0 l/m² 3,5 km/h (1 Bft) N-NW 335 ° 0 W/m² 15,1 °C 16,2 °C 6,4 km/h (2 Bft) 100 %
31.08.2026 02:30 16,3 °C 92 % 1018,6 hPa 0,0 l/m² 3,3 km/h (1 Bft) N-NW 348 ° 0 W/m² 15,0 °C 16,3 °C 6,4 km/h (2 Bft) 100 %
31.08.2026 02:25 16,4 °C 93 % 1018,6 hPa 0,0 l/m² 3,4 km/h (1 Bft) N 354 ° 0 W/m² 15,3 °C 16,4 °C 6,4 km/h (2 Bft) 100 %
31.08.2026 02:20 16,6 °C 93 % 1018,8 hPa 0,0 l/m² 3,1 km/h (1 Bft) N-NO 16 ° 0 W/m² 15,5 °C 16,6 °C 9,7 km/h (2 Bft) 100 %
31.08.2026 02:15 16,7 °C 93 % 1019,0 hPa 0,0 l/m² 3,1 km/h (1 Bft) N-NO 13 ° 0 W/m² 15,6 °C 16,7 °C 8,0 km/h (2 Bft) 100 %
31.08.2026 02:10 16,9 °C 93 % 1019,0 hPa 0,2 l/m² 0,0 km/h (0 Bft) NO 50 ° 0 W/m² 15,8 °C 16,9 °C 0,0 km/h (0 Bft) 100 %
31.08.2026 02:05 16,9 °C 93 % 1018,9 hPa 0,0 l/m² 1,6 km/h (1 Bft) NO 50 ° 0 W/m² 15,8 °C 16,9 °C 4,8 km/h (1 Bft) 100 %
31.08.2026 02:00 16,9 °C 93 % 1018,9 hPa 0,2 l/m² 3,2 km/h (1 Bft) NO 43 ° 0 W/m² 15,8 °C 16,9 °C 9,7 km/h (2 Bft) 100 %
31.08.2026 01:55 16,9 °C 93 % 1018,9 hPa 0,2 l/m² 3,2 km/h (1 Bft) N 350 ° 0 W/m² 15,8 °C 16,9 °C 6,4 km/h (2 Bft) 100 %
31.08.2026 01:50 16,9 °C 92 % 1019,1 hPa 0,8 l/m² 3,7 km/h (1 Bft) NW 322 ° 0 W/m² 15,6 °C 16,9 °C 11,3 km/h (2 Bft) 100 %
31.08.2026 01:45 17,0 °C 92 % 1019,1 hPa 0,6 l/m² 0,1 km/h (0 Bft) NO 39 ° 0 W/m² 15,7 °C 17,0 °C 1,6 km/h (1 Bft) 100 %
31.08.2026 01:40 17,0 °C 92 % 1019,0 hPa 0,4 l/m² 0,9 km/h (0 Bft) NO 39 ° 0 W/m² 15,7 °C 17,0 °C 3,2 km/h (1 Bft) 100 %
31.08.2026 01:35 17,0 °C 92 % 1018,9 hPa 0,4 l/m² 1,3 km/h (1 Bft) NO 39 ° 0 W/m² 15,7 °C 17,0 °C 4,8 km/h (1 Bft) 100 %
31.08.2026 01:30 17,1 °C 91 % 1018,7 hPa 0,0 l/m² 0,0 km/h (0 Bft) NO 39 ° 0 W/m² 15,6 °C 17,1 °C 1,6 km/h (1 Bft) 100 %
31.08.2026 01:25 17,0 °C 91 % 1018,5 hPa 0,0 l/m² 0,0 km/h (0 Bft) NO 37 ° 0 W/m² 15,5 °C 17,0 °C 0,0 km/h (0 Bft) 100 %
31.08.2026 01:20 17,1 °C 90 % 1018,2 hPa 0,0 l/m² 0,0 km/h (0 Bft) NO 37 ° 0 W/m² 15,4 °C 17,1 °C 0,0 km/h (0 Bft) 100 %
31.08.2026 01:15 17,2 °C 90 % 1018,0 hPa 0,2 l/m² 0,0 km/h (0 Bft) NO 37 ° 0 W/m² 15,5 °C 17,2 °C 0,0 km/h (0 Bft) 100 %
31.08.2026 01:10 17,3 °C 89 % 1017,7 hPa 0,2 l/m² 0,0 km/h (0 Bft) O-NO 60 ° 0 W/m² 15,5 °C 17,3 °C 0,0 km/h (0 Bft) 100 %
31.08.2026 01:05 17,4 °C 88 % 1018,2 hPa 0,2 l/m² 0,5 km/h (0 Bft) O-NO 61 ° 0 W/m² 15,4 °C 17,4 °C 4,8 km/h (1 Bft) 100 %
31.08.2026 01:00 17,6 °C 87 % 1018,2 hPa 0,2 l/m² 3,4 km/h (1 Bft) O-NO 61 ° 0 W/m² 15,4 °C 17,6 °C 8,0 km/h (2 Bft) 100 %
31.08.2026 00:55 17,9 °C 85 % 1018,7 hPa 0,8 l/m² 3,8 km/h (1 Bft) NW 312 ° 0 W/m² 15,3 °C 17,9 °C 8,0 km/h (2 Bft) 100 %
31.08.2026 00:50 18,6 °C 81 % 1019,0 hPa 0,8 l/m² 6,1 km/h (2 Bft) NW 318 ° 0 W/m² 15,3 °C 18,6 °C 19,3 km/h (3 Bft) 100 %
31.08.2026 00:45 19,2 °C 75 % 1019,1 hPa 0,4 l/m² 5,9 km/h (2 Bft) NO 36 ° 0 W/m² 14,7 °C 19,2 °C 14,5 km/h (3 Bft) 100 %
31.08.2026 00:40 19,9 °C 71 % 1018,3 hPa 0,0 l/m² 1,3 km/h (1 Bft) O 86 ° 0 W/m² 14,5 °C 19,9 °C 3,2 km/h (1 Bft) 100 %
31.08.2026 00:35 20,1 °C 69 % 1017,1 hPa 0,0 l/m² 1,2 km/h (1 Bft) N 4 ° 0 W/m² 14,2 °C 20,1 °C 4,8 km/h (1 Bft) 100 %
31.08.2026 00:30 20,4 °C 68 % 1016,9 hPa 0,0 l/m² 0,1 km/h (0 Bft) N-NW 335 ° 0 W/m² 14,3 °C 20,4 °C 1,6 km/h (1 Bft) 100 %
31.08.2026 00:25 20,4 °C 68 % 1016,9 hPa 0,0 l/m² 0,9 km/h (0 Bft) N-NW 335 ° 0 W/m² 14,3 °C 20,4 °C 3,2 km/h (1 Bft) 100 %
31.08.2026 00:20 20,5 °C 67 % 1016,7 hPa 0,0 l/m² 0,9 km/h (0 Bft) N-NW 335 ° 0 W/m² 14,2 °C 20,5 °C 1,6 km/h (1 Bft) 100 %
31.08.2026 00:15 20,6 °C 66 % 1016,6 hPa 0,0 l/m² 0,4 km/h (0 Bft) N-NW 335 ° 0 W/m² 14,0 °C 20,6 °C 1,6 km/h (1 Bft) 100 %
31.08.2026 00:10 20,7 °C 66 % 1016,4 hPa 0,0 l/m² 1,8 km/h (1 Bft) N-NW 335 ° 0 W/m² 14,1 °C 20,7 °C 3,2 km/h (1 Bft) 100 %
31.08.2026 00:05 20,6 °C 66 % 1016,5 hPa 0,0 l/m² 2,2 km/h (1 Bft) N-NW 335 ° 0 W/m² 14,0 °C 20,6 °C 4,8 km/h (1 Bft) 100 %
31.08.2026 00:00 20,6 °C 67 % 1016,6 hPa 0,0 l/m² 1,4 km/h (1 Bft) O-NO 64 ° 0 W/m² 14,3 °C 20,6 °C 3,2 km/h (1 Bft) 100 %
_ Min-Zeit 03:25 16:40 00:10 - 01:10 - - - 18:20 06:35 01:10 00:00
Minimum _ 15,7 °C 50 % 1016,4 hPa - 0,0 km/h (0 Bft) - - - 11,7 °C 15,7 °C 0,0 km/h (0 Bft) 100 %
_ Max-Zeit 16:05 05:05 21:35 00:50 16:10 - - 12:50 01:55 16:05 18:30 00:00
Maximum _ 24,1 °C 94 % 1023,6 hPa 0,8 l/m² 9,0 km/h
O-NO (2 Bft)
- - 860 W/m² 15,8 °C 24,1 °C 32,2 km/h
O (5 Bft)
100 %
Durchschnitt _ 18,4 °C 78 % 1020,4 hPa #6,2 l/m² 3,0 km/h (1 Bft) N-NW - 258 W/m² 14,1 °C 18,4 °C 9,1 km/h (2 Bft) 100 %
Elztal-Wetter